Time;durP1;ratioP1;P1;durP2;ratioP2;P2;SDS_P1;SDS_P2;PMS_P1;PMS_P2;Temp;Humidity;BMP_temperature;BMP_pressure;BME280_temperature;BME280_humidity;BME280_pressure;Samples;Min_cycle;Max_cycle;Signal;HPM_P1;HPM_P2
2022/03/24 00:00:25;;;;;;;21.63;8.35;;;;;;;9.12;26.15;99392.06;5012400;28;20042;-69
2022/03/24 00:02:51;;;;;;;19.95;7.18;;;;;;;9.04;26.22;99374.34;5022289;28;20072;-69
2022/03/24 00:05:17;;;;;;;16.08;6.53;;;;;;;9.07;26.11;99386.63;5025601;28;20045;-70
2022/03/24 00:07:43;;;;;;;14.32;6.07;;;;;;;9.06;25.73;99374.06;5020128;28;20069;-70
2022/03/24 00:10:10;;;;;;;14.82;6.32;;;;;;;9.03;25.73;99369.97;5026028;28;20053;-70
2022/03/24 00:12:37;;;;;;;11.98;5.35;;;;;;;8.98;25.50;99364.53;5018883;28;20077;-70
2022/03/24 00:15:06;;;;;;;15.57;5.93;;;;;;;9.07;25.43;99367.53;5025421;28;20045;-69
2022/03/24 00:17:33;;;;;;;16.25;5.38;;;;;;;9.05;25.27;99362.34;5044171;28;20107;-70
2022/03/24 00:20:00;;;;;;;9.87;4.13;;;;;;;9.07;25.28;99359.34;5020358;28;20095;-69
2022/03/24 00:22:27;;;;;;;9.75;3.53;;;;;;;9.03;24.86;99359.06;5021274;28;20055;-70
2022/03/24 00:24:53;;;;;;;11.90;3.63;;;;;;;9.03;24.47;99352.78;5025204;28;20413;-69
2022/03/24 00:27:20;;;;;;;10.63;3.92;;;;;;;8.98;24.56;99350.06;5025557;28;20054;-69
2022/03/24 00:29:46;;;;;;;12.77;4.15;;;;;;;8.98;24.63;99350.06;5018508;28;20513;-70
2022/03/24 00:32:13;;;;;;;10.38;3.72;;;;;;;8.94;24.55;99345.19;5025367;28;20049;-70
2022/03/24 00:34:40;;;;;;;10.90;3.70;;;;;;;8.96;24.66;99344.09;5028771;28;20485;-70
2022/03/24 00:37:09;;;;;;;13.63;3.33;;;;;;;8.92;24.55;99339.19;5020127;28;20080;-70
2022/03/24 00:39:36;;;;;;;9.88;3.92;;;;;;;8.95;24.67;99337.78;5018685;28;20069;-70
2022/03/24 00:42:11;;;;;;;9.80;4.00;;;;;;;8.94;24.65;99333.44;4990586;28;20137;-69
2022/03/24 00:44:42;;;;;;;12.05;4.10;;;;;;;8.91;24.60;99334.00;5036356;28;20045;-69
2022/03/24 00:47:10;;;;;;;13.50;4.78;;;;;;;8.90;24.89;99333.19;5026384;28;20092;-69
2022/03/24 00:49:40;;;;;;;14.10;4.78;;;;;;;8.87;24.73;99333.72;5016416;28;20076;-69
2022/03/24 00:52:09;;;;;;;12.57;4.43;;;;;;;8.88;24.98;99320.91;5015827;28;20508;-69
2022/03/24 00:54:36;;;;;;;16.92;5.18;;;;;;;8.94;25.02;99330.72;5020333;28;20037;-70
2022/03/24 00:57:02;;;;;;;16.15;5.20;;;;;;;8.96;25.27;99317.63;5019807;28;20054;-69
2022/03/24 00:59:29;;;;;;;15.38;5.80;;;;;;;8.99;25.03;99327.16;5021262;28;20060;-69
2022/03/24 01:01:56;;;;;;;16.08;5.32;;;;;;;8.97;25.16;99324.69;5026835;28;20050;-68
2022/03/24 01:04:22;;;;;;;12.13;4.75;;;;;;;8.94;25.10;99309.72;5027412;28;20505;-69
2022/03/24 01:06:51;;;;;;;11.75;4.32;;;;;;;8.96;24.80;99312.16;5020086;28;20052;-70
2022/03/24 01:09:17;;;;;;;15.20;4.32;;;;;;;8.97;24.77;99313.78;5016519;28;20498;-70
2022/03/24 01:11:44;;;;;;;12.15;4.45;;;;;;;8.91;24.81;99313.00;5022326;28;20419;-69
2022/03/24 01:14:11;;;;;;;10.75;4.72;;;;;;;8.91;24.74;99304.00;5025204;28;20082;-70
2022/03/24 01:16:37;;;;;;;15.35;5.22;;;;;;;8.87;24.77;99305.66;5027971;28;20466;-70
2022/03/24 01:19:05;;;;;;;15.30;5.05;;;;;;;8.84;24.74;99301.56;5029293;28;20270;-70
2022/03/24 01:21:31;;;;;;;;;;;;;;;8.83;24.58;99299.94;5031711;28;20045;-71
2022/03/24 01:23:59;;;;;;;11.15;4.15;;;;;;;8.80;24.54;99295.03;5033624;28;19925;-69
2022/03/24 01:26:25;;;;;;;11.05;3.50;;;;;;;8.78;24.37;99295.28;5024130;28;20045;-71
2022/03/24 01:28:51;;;;;;;9.48;3.53;;;;;;;8.82;24.31;99289.28;5032899;28;20049;-71
2022/03/24 01:31:20;;;;;;;10.00;2.95;;;;;;;8.87;23.95;99298.28;5031333;28;20099;-69
2022/03/24 01:33:47;;;;;;;8.50;3.10;;;;;;;8.90;23.72;99295.03;5027171;28;20041;-70
2022/03/24 01:36:14;;;;;;;10.90;2.63;;;;;;;8.85;23.88;99292.28;5030088;28;20073;-72
2022/03/24 01:38:40;;;;;;;9.75;2.80;;;;;;;8.90;23.66;99295.03;5010196;28;20456;-70
2022/03/24 01:41:07;;;;;;;9.55;2.90;;;;;;;8.92;23.69;99292.84;5014395;28;20064;-70
2022/03/24 01:43:34;;;;;;;10.82;2.42;;;;;;;8.89;23.92;99282.44;5030634;28;20041;-70
2022/03/24 01:46:00;;;;;;;7.10;2.45;;;;;;;8.92;23.68;99292.84;5012524;28;20048;-70
2022/03/24 01:48:27;;;;;;;8.50;2.92;;;;;;;8.92;23.70;99281.94;5031709;28;20513;-70
2022/03/24 01:50:53;;;;;;;8.35;3.28;;;;;;;8.91;23.76;99285.75;5014755;28;20069;-69
2022/03/24 01:53:20;;;;;;;12.48;3.53;;;;;;;8.96;23.91;99286.81;5013474;28;20050;-70
2022/03/24 01:55:48;;;;;;;8.15;3.30;;;;;;;8.92;24.05;99287.38;5032745;28;20521;-70
2022/03/24 01:58:15;;;;;;;9.43;3.28;;;;;;;8.86;24.05;99274.03;5029793;28;20594;-70
2022/03/24 02:00:44;;;;;;;12.13;3.85;;;;;;;8.86;24.08;99285.75;5030364;28;20045;-69
2022/03/24 02:03:14;;;;;;;9.75;3.50;;;;;;;8.85;24.16;99280.59;5031739;28;20503;-70
2022/03/24 02:05:42;;;;;;;10.15;3.60;;;;;;;8.79;24.09;99268.88;5025560;28;20497;-71
2022/03/24 02:08:09;;;;;;;10.00;3.75;;;;;;;8.81;23.99;99277.59;5005399;28;20116;-70
2022/03/24 02:10:36;;;;;;;13.25;4.75;;;;;;;8.76;24.32;99274.88;5028786;28;20068;-70
2022/03/24 02:13:04;;;;;;;17.08;5.00;;;;;;;8.69;24.48;99274.31;5022682;28;20056;-70
2022/03/24 02:15:33;;;;;;;16.83;5.25;;;;;;;8.66;24.71;99272.97;5024102;28;20057;-70
2022/03/24 02:17:59;;;;;;;17.05;7.20;;;;;;;8.61;25.10;99276.53;5004090;28;20060;-70
2022/03/24 02:20:28;;;;;;;16.23;6.60;;;;;;;8.62;25.04;99275.44;5019833;28;20053;-70
2022/03/24 02:22:55;;;;;;;12.57;5.28;;;;;;;8.61;25.07;99268.34;5024393;28;20048;-73
2022/03/24 02:25:27;;;;;;;19.42;5.63;;;;;;;8.61;24.83;99265.63;5024446;28;20050;-71
2022/03/24 02:27:55;;;;;;;37.20;8.30;;;;;;;8.56;25.05;99267.53;5017817;28;20042;-68
2022/03/24 02:30:21;;;;;;;;;;;;;;;8.48;25.39;99261.50;5022636;28;20414;-70
2022/03/24 02:32:47;;;;;;;46.45;14.75;;;;;;;8.42;25.67;99262.63;5024242;28;19963;-71
2022/03/24 02:35:14;;;;;;;46.83;14.52;;;;;;;8.35;25.80;99254.72;5022720;28;20055;-70
2022/03/24 02:37:40;;;;;;;59.05;15.98;;;;;;;8.31;26.07;99250.91;5023658;28;20065;-70
2022/03/24 02:40:09;;;;;;;54.70;17.05;;;;;;;8.19;26.34;99248.44;5016069;28;20045;-70
2022/03/24 02:42:38;;;;;;;53.00;16.23;;;;;;;8.23;26.15;99249.56;5031432;28;20049;-70
2022/03/24 02:45:06;;;;;;;;;;;;;;;8.13;26.43;99246.03;5021305;28;20103;-69
2022/03/24 02:47:33;;;;;;;61.65;17.75;;;;;;;8.01;27.16;99249.00;5016965;28;19975;-70
2022/03/24 02:50:00;;;;;;;55.87;17.73;;;;;;;7.93;27.51;99247.63;5002241;28;20049;-68
2022/03/24 02:52:26;;;;;;;61.70;18.50;;;;;;;7.73;28.18;99234.81;5021659;28;20304;-69
2022/03/24 02:54:53;;;;;;;50.17;15.00;;;;;;;7.74;28.71;99247.34;5021671;28;20089;-68
2022/03/24 02:57:20;;;;;;;41.97;13.70;;;;;;;7.60;28.91;99242.41;5025006;28;20498;-69
2022/03/24 02:59:46;;;;;;;35.53;13.48;;;;;;;7.58;29.01;99239.16;5024062;28;20162;-68
2022/03/24 03:02:14;;;;;;;37.83;13.93;;;;;;;7.56;28.78;99237.78;5012133;28;20060;-69
2022/03/24 03:04:41;;;;;;;47.83;16.17;;;;;;;7.54;28.93;99240.75;5029850;28;20091;-67
2022/03/24 03:07:08;;;;;;;40.00;14.60;;;;;;;7.51;28.84;99235.84;5020135;28;20502;-69
2022/03/24 03:09:37;;;;;;;35.78;12.82;;;;;;;7.49;28.64;99238.84;5025646;28;20095;-68
2022/03/24 03:12:04;;;;;;;34.70;12.23;;;;;;;7.53;28.40;99236.41;5019293;28;20068;-68
2022/03/24 03:14:32;;;;;;;39.30;13.15;;;;;;;7.45;28.57;99239.66;5026417;28;20501;-67
2022/03/24 03:16:58;;;;;;;40.25;13.48;;;;;;;7.33;28.87;99235.25;5012719;28;20060;-69
2022/03/24 03:19:26;;;;;;;37.37;14.23;;;;;;;7.29;29.06;99233.34;5028696;28;20045;-67
2022/03/24 03:21:53;;;;;;;42.10;13.50;;;;;;;7.27;29.20;99230.06;5021637;28;20058;-69
2022/03/24 03:24:22;;;;;;;32.28;12.15;;;;;;;7.28;29.23;99231.69;5024178;28;20143;-68
2022/03/24 03:26:49;;;;;;;39.38;12.55;;;;;;;7.26;29.24;99239.31;5019737;28;20376;-68
2022/03/24 03:29:17;;;;;;;;;;;;;;;7.27;29.24;99225.47;5021603;28;20604;-69
2022/03/24 03:31:44;;;;;;;;;;;;;;;7.44;29.04;99222.50;5029791;28;19979;-69
2022/03/24 03:34:10;;;;;;;;;;;;;;;7.52;28.53;99227.44;5027476;28;19932;-69
2022/03/24 03:36:37;;;;;;;;;;;;;;;7.43;28.78;99225.50;5027499;28;20397;-68
2022/03/24 03:39:04;;;;;;;;;;;;;;;7.43;28.68;99226.31;5030830;28;19929;-69
2022/03/24 03:41:29;;;;;;;;;;;;;;;7.43;28.76;99228.22;5022556;28;19925;-68
2022/03/24 03:43:56;;;;;;;;;;;;;;;7.38;29.11;99224.38;5030171;28;20027;-69
2022/03/24 03:46:22;;;;;;;;;;;;;;;7.38;28.89;99209.97;5027514;28;19925;-68
2022/03/24 03:48:49;;;;;;;;;;;;;;;7.36;29.19;99218.41;5024496;28;19925;-69
2022/03/24 03:51:15;;;;;;;;;;;;;;;7.34;29.19;99223.28;5021944;28;19972;-69
2022/03/24 03:53:41;;;;;;;;;;;;;;;7.30;29.58;99219.47;5022329;28;19925;-68
2022/03/24 03:56:08;;;;;;;;;;;;;;;7.29;29.72;99217.00;5024959;28;19925;-69
2022/03/24 03:58:37;;;;;;;;;;;;;;;7.35;29.55;99221.41;5022869;28;20356;-69
2022/03/24 04:01:02;;;;;;;;;;;;;;;7.21;30.19;99218.34;5028256;28;19929;-69
2022/03/24 04:03:29;;;;;;;;;;;;;;;7.16;30.17;99207.47;4986559;28;20076;-69
2022/03/24 04:05:57;;;;;;;;;;;;;;;7.29;30.14;99212.41;5005436;28;19931;-69
2022/03/24 04:08:23;;;;;;;;;;;;;;;7.37;29.98;99205.63;5028087;28;19925;-69
2022/03/24 04:10:49;;;;;;;;;;;;;;;7.26;30.20;99210.22;5023604;28;19929;-69
2022/03/24 04:13:15;;;;;;;;;;;;;;;7.19;30.54;99205.03;5026016;28;19925;-68
2022/03/24 04:15:41;;;;;;;;;;;;;;;7.12;30.92;99207.16;5028530;28;20389;-68
2022/03/24 04:18:07;;;;;;;;;;;;;;;7.13;30.83;99199.84;5028733;28;19925;-68
2022/03/24 04:20:34;;;;;;;;;;;;;;;7.21;30.74;99204.75;5029650;28;20576;-68
2022/03/24 04:23:01;;;;;;;;;;;;;;;7.21;30.75;99202.03;5028493;28;19925;-68
2022/03/24 04:25:27;;;;;;;;;;;;;;;7.07;31.28;99202.53;5028743;28;19925;-71
2022/03/24 04:27:54;;;;;;;;;;;;;;;7.11;31.09;99202.81;5031036;28;19925;-67
2022/03/24 04:30:21;;;;;;;;;;;;;;;7.06;31.07;99203.63;5030397;28;19925;-67
2022/03/24 04:32:48;;;;;;;;;;;;;;;7.12;31.21;99200.94;5010511;28;19924;-69
2022/03/24 04:35:15;;;;;;;;;;;;;;;7.09;31.61;99200.34;5026422;28;19924;-68
2022/03/24 04:37:41;;;;;;;;;;;;;;;7.12;31.98;99187.34;5030730;28;19932;-67
2022/03/24 04:40:08;;;;;;;;;;;;;;;7.06;32.42;99198.19;5028935;28;20807;-67
2022/03/24 04:42:34;;;;;;;;;;;;;;;7.01;32.80;99197.34;5027286;28;19932;-68
2022/03/24 04:45:00;;;;;;;;;;;;;;;7.03;32.76;99200.63;5027998;28;19925;-68
2022/03/24 04:47:26;;;;;;;;;;;;;;;7.03;32.90;99193.28;5042937;28;20355;-68
2022/03/24 04:49:52;;;;;;;;;;;;;;;7.00;33.16;99199.25;5024943;28;19960;-67
2022/03/24 04:52:19;;;;;;;;;;;;;;;7.03;33.29;99196.00;5023585;28;19960;-67
2022/03/24 04:54:45;;;;;;;;;;;;;;;7.09;33.43;99183.25;5026932;28;20007;-68
2022/03/24 04:57:12;;;;;;;;;;;;;;;7.22;33.42;99195.50;5014450;28;20389;-67
2022/03/24 04:59:38;;;;;;;;;;;;;;;7.33;33.19;99196.34;5022484;28;20016;-68
2022/03/24 05:02:04;;;;;;;;;;;;;;;7.24;33.70;99202.31;5018564;28;19926;-69
2022/03/24 05:04:30;;;;;;;;;;;;;;;7.32;33.88;99203.72;5014503;28;19926;-66
2022/03/24 05:06:56;;;;;;;;;;;;;;;7.39;34.06;99200.75;5015907;28;20407;-66
2022/03/24 05:09:22;;;;;;;;;;;;;;;7.45;33.68;99194.22;5030993;28;19979;-68
2022/03/24 05:11:48;;;;;;;;;;;;;;;7.60;33.67;99192.59;5025563;28;20349;-68
2022/03/24 05:14:15;;;;;;;;;;;;;;;7.58;33.63;99198.34;5020620;28;19925;-67
2022/03/24 05:16:41;;;;;;;;;;;;;;;7.58;33.83;99200.22;5014077;28;19965;-69
2022/03/24 05:19:07;;;;;;;;;;;;;;;7.50;33.51;99196.97;5031882;28;19925;-68
2022/03/24 05:21:32;;;;;;;;;;;;;;;7.51;33.65;99192.31;5033014;28;19935;-69
2022/03/24 05:23:59;;;;;;;;;;;;;;;7.54;33.96;99189.06;5025565;28;19925;-67
2022/03/24 05:26:25;;;;;;;;;;;;;;;7.64;33.57;99193.69;5020281;28;19925;-75
2022/03/24 05:28:51;;;;;;;;;;;;;;;7.70;33.71;99191.81;5031937;28;20335;-75
2022/03/24 05:31:18;;;;;;;;;;;;;;;7.79;33.58;99195.63;5022444;28;19929;-75
2022/03/24 05:33:45;;;;;;;;;;;;;;;7.86;33.42;99189.91;4986427;28;19925;-74
2022/03/24 05:36:11;;;;;;;;;;;;;;;7.92;33.29;99191.53;5007124;28;19925;-76
2022/03/24 05:38:37;;;;;;;;;;;;;;;7.95;33.36;99191.81;5025897;28;19926;-75
2022/03/24 05:41:04;;;;;;;;;;;;;;;8.05;33.25;99196.44;5027361;28;19932;-76
2022/03/24 05:43:30;;;;;;;;;;;;;;;8.16;32.97;99199.16;5023250;28;19925;-75
2022/03/24 05:45:56;;;;;;;;;;;;;;;8.25;32.91;99200.25;5021898;28;19932;-75
2022/03/24 05:48:23;;;;;;;;;;;;;;;8.33;32.67;99198.88;5028361;28;20422;-75
2022/03/24 05:51:19;;;;;;;;;;;;;;;8.38;32.61;99201.59;4993544;28;19970;-75
2022/03/24 05:53:44;;;;;;;;;;;;;;;8.53;32.57;99194.53;5016553;28;19947;-74
2022/03/24 05:56:10;;;;;;;;;;;;;;;8.63;32.40;99198.03;5026421;28;20301;-74
2022/03/24 05:58:36;;;;;;;;;;;;;;;8.69;32.28;99209.75;5024843;28;19957;-67
2022/03/24 06:01:05;;;;;;;;;;;;;;;8.77;32.14;99206.44;5022477;28;19925;-68
2022/03/24 06:03:35;;;;;;;;;;;;;;;8.86;32.10;99209.41;5032188;28;20384;-67
2022/03/24 06:06:01;;;;;;;;;;;;;;;8.89;31.82;99211.56;5031932;28;19924;-69
2022/03/24 06:08:27;;;;;;;;;;;;;;;8.96;31.98;99205.81;5028090;28;19925;-68
2022/03/24 06:10:53;;;;;;;;;;;;;;;8.99;31.87;99208.00;5032236;28;20415;-69
2022/03/24 06:13:19;;;;;;;;;;;;;;;9.05;31.76;99206.88;5031133;28;20347;-69
2022/03/24 06:15:50;;;;;;;;;;;;;;;9.09;31.79;99207.16;5015128;28;19929;-68
2022/03/24 06:18:16;;;;;;;;;;;;;;;9.18;31.57;99212.84;5014724;28;20365;-69
2022/03/24 06:20:43;;;;;;;;;;;;;;;9.26;31.45;99212.25;5027618;28;19952;-67
2022/03/24 06:23:09;;;;;;;;;;;;;;;9.36;31.35;99211.38;5012345;28;19933;-66
2022/03/24 06:25:37;;;;;;;;;;;;;;;9.43;31.14;99213.78;5027420;28;19925;-68
2022/03/24 06:28:03;;;;;;;;;;;;;;;9.52;31.13;99217.56;5029575;28;19931;-69
2022/03/24 06:30:29;;;;;;;;;;;;;;;9.61;31.15;99221.34;5018483;28;19925;-69
2022/03/24 06:32:56;;;;;;;;;;;;;;;9.69;30.84;99214.47;5024371;28;19980;-69
2022/03/24 06:35:22;;;;;;;;;;;;;;;9.78;30.76;99220.94;5027994;28;20297;-68
2022/03/24 06:37:50;;;;;;;;;;;;;;;9.87;30.57;99210.22;4996569;28;19925;-69
2022/03/24 06:40:17;;;;;;;;;;;;;;;10.03;30.35;99219.13;5023121;28;20362;-69
2022/03/24 06:42:43;;;;;;;;;;;;;;;10.05;30.50;99221.56;5019085;28;19971;-68
2022/03/24 06:45:10;;;;;;;;;;;;;;;10.11;30.25;99223.16;5023396;28;19960;-69
2022/03/24 06:47:36;;;;;;;;;;;;;;;10.23;30.23;99214.59;5023223;28;20360;-68
2022/03/24 06:50:02;;;;;;;;;;;;;;;10.32;30.14;99223.81;5015474;28;19976;-68
2022/03/24 06:52:28;;;;;;;;;;;;;;;10.42;30.14;99228.41;5025597;28;19948;-69
2022/03/24 06:54:55;;;;;;;;;;;;;;;10.55;29.86;99229.63;5024054;28;20219;-68
2022/03/24 06:57:21;;;;;;;;;;;;;;;10.59;29.89;99229.88;5027070;28;19965;-68
2022/03/24 06:59:47;;;;;;;;;;;;;;;10.61;29.91;99230.41;5023434;28;19924;-68
2022/03/24 07:02:13;;;;;;;;;;;;;;;10.71;29.80;99232.22;5026577;28;20552;-69
2022/03/24 07:04:39;;;;;;;;;;;;;;;10.81;29.69;99225.81;5030060;28;19925;-69
2022/03/24 07:07:05;;;;;;;;;;;;;;;10.88;29.81;99221.63;5028552;28;20322;-69
2022/03/24 07:09:31;;;;;;;;;;;;;;;10.91;29.69;99218.31;5024054;28;20365;-69
2022/03/24 07:11:57;;;;;;;;;;;;;;;10.98;29.41;99219.88;5029215;28;19931;-66
2022/03/24 07:14:24;;;;;;;;;;;;;;;11.09;29.58;99215.94;5022566;28;19960;-69
2022/03/24 07:16:51;;;;;;;;;;;;;;;11.19;29.23;99225.94;5019142;28;19983;-68
2022/03/24 07:19:19;;;;;;;;;;;;;;;11.35;29.33;99230.09;5023370;28;19931;-69
2022/03/24 07:21:45;;;;;;;;;;;;;;;11.40;29.15;99225.66;5018466;28;19925;-68
2022/03/24 07:24:11;;;;;;;;;;;;;;;11.44;29.08;99235.72;5027956;28;19931;-68
2022/03/24 07:26:38;;;;;;;;;;;;;;;11.49;29.00;99226.63;5023244;28;19925;-68
2022/03/24 07:29:10;;;;;;;;;;;;;;;11.52;28.88;99231.53;5028675;28;20446;-74
2022/03/24 07:31:36;;;;;;;;;;;;;;;11.62;28.64;99236.84;5001191;28;19968;-74
2022/03/24 07:34:02;;;;;;;;;;;;;;;11.70;28.55;99235.34;5011770;28;19971;-68
2022/03/24 07:36:28;;;;;;;;;;;;;;;11.75;28.52;99232.56;5019973;28;19968;-68
2022/03/24 07:38:56;;;;;;;;;;;;;;;11.82;28.66;99245.06;5018812;28;20397;-68
2022/03/24 07:41:22;;;;;;;;;;;;;;;11.92;28.42;99244.91;5029774;28;20019;-66
2022/03/24 07:43:48;;;;;;;;;;;;;;;11.92;28.37;99242.19;4986945;28;19924;-67
2022/03/24 07:46:15;;;;;;;;;;;;;;;12.00;28.41;99237.94;5026250;28;19929;-69
2022/03/24 07:48:46;;;;;;;;;;;;;;;12.08;28.09;99237.28;5021587;28;20313;-69
2022/03/24 07:51:13;;;;;;;;;;;;;;;12.17;27.94;99230.03;5020815;28;19929;-69
2022/03/24 07:53:49;;;;;;;;;;;;;;;12.22;28.00;99229.13;5020635;28;20159;-69
2022/03/24 07:56:16;;;;;;;;;;;;;;;12.30;27.98;99231.16;5022731;28;20027;-69
2022/03/24 07:58:42;;;;;;;;;;;;;;;12.42;27.62;99230.72;5017183;28;19929;-69
2022/03/24 08:01:08;;;;;;;;;;;;;;;12.48;27.54;99223.19;5021014;28;20028;-69
2022/03/24 08:03:35;;;;;;;;;;;;;;;12.57;27.42;99226.88;5023692;28;20027;-69
2022/03/24 08:06:04;;;;;;;;;;;;;;;12.65;27.22;99230.03;5028538;28;19924;-68
2022/03/24 08:08:30;;;;;;;;;;;;;;;12.74;27.25;99233.69;5023801;28;19978;-68
2022/03/24 08:10:56;;;;;;;;;;;;;;;12.82;27.23;99229.44;5025216;28;20023;-68
2022/03/24 08:13:23;;;;;;;;;;;;;;;12.90;27.17;99228.75;5027522;28;19929;-75
2022/03/24 08:15:50;;;;;;;;;;;;;;;13.03;26.73;99227.09;5023438;28;20281;-74
2022/03/24 08:18:16;;;;;;;;;;;;;;;13.12;26.79;99228.03;5022681;28;19937;-75
2022/03/24 08:20:44;;;;;;;;;;;;;;;13.24;26.78;99224.75;5028562;28;19925;-74
2022/03/24 08:23:10;;;;;;;;;;;;;;;13.34;26.70;99226.47;5030838;28;20411;-73
2022/03/24 08:25:37;;;;;;;;;;;;;;;13.46;26.55;99225.97;5029268;28;20313;-74
2022/03/24 08:28:03;;;;;;;;;;;;;;;13.55;26.38;99223.31;5024448;28;19932;-74
2022/03/24 08:30:29;;;;;;;;;;;;;;;13.68;26.14;99221.66;5014949;28;20504;-73
2022/03/24 08:32:55;;;;;;;;;;;;;;;13.80;26.02;99223.84;5014955;28;20317;-74
2022/03/24 08:35:21;;;;;;;;;;;;;;;13.90;26.07;99216.19;5026085;28;19925;-74
2022/03/24 08:37:48;;;;;;;;;;;;;;;14.01;25.79;99222.22;5028387;28;20423;-74
2022/03/24 08:40:15;;;;;;;;;;;;;;;14.13;25.74;99218.13;5029792;28;19925;-74
2022/03/24 08:42:41;;;;;;;;;;;;;;;14.22;25.47;99219.00;5013283;28;19925;-74
2022/03/24 08:45:08;;;;;;;;;;;;;;;14.35;25.43;99213.72;5028768;28;19964;-74
2022/03/24 08:47:34;;;;;;;;;;;;;;;14.44;25.09;99218.16;5029814;28;19925;-75
2022/03/24 08:50:00;;;;;;;;;;;;;;;14.55;25.19;99217.88;5030739;28;19932;-76
2022/03/24 08:52:27;;;;;;;;;;;;;;;14.64;24.83;99220.66;5028449;28;19925;-75
2022/03/24 08:54:54;;;;;;;;;;;;;;;14.75;24.66;99219.31;5027331;28;19971;-74
2022/03/24 08:57:26;;;;;;;;;;;;;;;14.88;24.58;99220.31;5030295;28;19925;-71
2022/03/24 08:59:52;;;;;;;;;;;;;;;15.06;24.36;99221.19;5024461;28;19948;-75
2022/03/24 09:02:18;;;;;;;;;;;;;;;15.16;24.14;99223.66;5020875;28;20411;-73
2022/03/24 09:04:44;;;;;;;;;;;;;;;15.27;24.04;99217.84;5026006;28;19932;-70
2022/03/24 09:07:10;;;;;;;;;;;;;;;15.40;23.61;99214.16;5014402;28;19925;-70
2022/03/24 09:09:37;;;;;;;;;;;;;;;15.51;23.66;99217.41;5025752;28;20397;-73
2022/03/24 09:12:04;;;;;;;;;;;;;;;15.60;23.35;99212.72;5030371;28;19929;-72
2022/03/24 09:14:32;;;;;;;;;;;;;;;15.76;23.06;99214.19;5028523;28;20380;-73
2022/03/24 09:16:58;;;;;;;;;;;;;;;15.87;22.89;99212.72;5029702;28;19968;-73
2022/03/24 09:19:24;;;;;;;;;;;;;;;15.94;22.80;99210.34;5029993;28;19967;-72
2022/03/24 09:21:49;;;;;;;;;;;;;;;16.04;22.71;99214.69;5023149;28;19929;-71
2022/03/24 09:24:16;;;;;;;;;;;;;;;16.10;22.55;99210.63;5026705;28;19929;-72
2022/03/24 09:26:42;;;;;;;;;;;;;;;16.17;22.02;99218.41;5019172;28;19937;-76
2022/03/24 09:29:10;;;;;;;;;;;;;;;16.25;22.19;99216.78;5025826;28;19925;-75
2022/03/24 09:31:35;;;;;;;;;;;;;;;16.38;21.99;99212.19;5027396;28;19928;-73
2022/03/24 09:34:03;;;;;;;;;;;;;;;16.54;21.81;99218.81;5030554;28;20419;-74
2022/03/24 09:36:29;;;;;;;;;;;;;;;16.62;21.52;99216.38;5027706;28;19925;-74
2022/03/24 09:38:56;;;;;;;;;;;;;;;16.73;21.64;99210.16;5013600;28;20377;-76
2022/03/24 09:41:25;;;;;;;;;;;;;;;16.93;21.55;99210.53;5032135;28;20463;-76
2022/03/24 09:43:51;;;;;;;;;;;;;;;17.09;21.23;99208.06;5032295;28;19975;-75
2022/03/24 09:46:19;;;;;;;;;;;;;;;17.23;21.12;99210.56;5015374;28;19925;-75
2022/03/24 09:48:45;;;;;;;;;;;;;;;17.32;20.82;99205.00;5025908;28;19925;-75
2022/03/24 09:51:11;;;;;;;;;;;;;;;17.47;20.73;99211.09;5032320;28;19931;-76
2022/03/24 09:53:39;;;;;;;;;;;;;;;17.54;20.44;99206.63;5032366;28;20413;-76
2022/03/24 09:56:05;;;;;;;;;;;;;;;17.55;19.83;99204.69;5032605;28;20035;-76
2022/03/24 09:58:31;;;;;;;;;;;;;;;17.58;20.06;99193.78;5032235;28;19951;-76
2022/03/24 10:00:57;;;;;;;;;;;;;;;17.67;19.46;99206.72;5032080;28;19924;-76
2022/03/24 10:03:26;;;;;;;;;;;;;;;17.74;19.24;99200.66;5033345;28;19924;-75
2022/03/24 10:05:56;;;;;;;;;;;;;;;17.86;19.07;99197.94;5033059;28;20007;-75
2022/03/24 10:08:22;;;;;;;;;;;;;;;18.05;18.98;99203.03;5032336;28;19937;-76
2022/03/24 10:10:48;;;;;;;;;;;;;;;18.17;19.19;99195.91;5033298;28;19924;-76
2022/03/24 10:13:23;;;;;;;;;;;;;;;18.29;18.79;99198.72;5029541;28;19947;-76
2022/03/24 10:15:48;;;;;;;;;;;;;;;18.40;18.74;99191.59;5016950;28;19925;-76
2022/03/24 10:18:15;;;;;;;;;;;;;;;18.51;18.59;99196.69;5031825;28;19925;-76
2022/03/24 10:20:42;;;;;;;;;;;;;;;18.62;18.67;99206.16;5032477;28;19925;-76
2022/03/24 10:23:08;;;;;;;;;;;;;;;18.71;18.29;99208.81;5032086;28;20321;-76
2022/03/24 10:25:36;;;;;;;;;;;;;;;18.64;18.03;99203.84;5027421;28;20373;-76
2022/03/24 10:28:03;;;;;;;;;;;;;;;18.54;18.00;99205.09;5028418;28;20294;-76
2022/03/24 10:30:44;;;;;;;;;;;;;;;18.55;17.55;99200.38;5032729;28;20015;-76
2022/03/24 10:33:09;;;;;;;;;;;;;;;18.65;17.60;99207.44;5027456;28;19925;-75
2022/03/24 10:35:35;;;;;;;;;;;;;;;18.83;17.88;99206.06;5027133;28;19925;-76
2022/03/24 10:38:02;;;;;;;;;;;;;;;18.98;17.76;99204.59;5031482;28;19971;-76
2022/03/24 10:40:29;;;;;;;;;;;;;;;19.07;17.33;99201.72;5020932;28;20030;-75
2022/03/24 10:42:59;;;;;;;;;;;;;;;19.17;17.17;99202.41;5030414;28;20353;-76
2022/03/24 10:45:25;;;;;;;;;;;;;;;19.17;17.23;99207.94;5022904;28;20468;-75
2022/03/24 10:47:53;;;;;;;;;;;;;;;19.10;16.95;99208.53;5025148;28;19932;-75
2022/03/24 10:50:20;;;;;;;;;;;;;;;19.06;16.92;99202.06;5026638;28;19978;-76
2022/03/24 10:52:47;;;;;;;;;;;;;;;19.12;16.75;99203.44;5028275;28;19964;-76
2022/03/24 10:55:19;;;;;;;;;;;;;;;19.16;16.60;99206.31;5043867;28;19940;-76
2022/03/24 10:57:45;;;;;;;;;;;;;;;19.23;16.58;99203.78;5030616;28;19931;-75
2022/03/24 11:00:11;;;;;;;;;;;;;;;19.32;16.54;99209.22;5032414;28;19931;-76
2022/03/24 11:02:38;;;;;;;;;;;;;;;19.43;16.86;99204.78;5031067;28;19932;-76
2022/03/24 11:05:12;;;;;;;;;;;;;;;19.48;16.42;99203.75;5024127;28;19925;-76
2022/03/24 11:07:38;;;;;;;;;;;;;;;19.57;16.55;99209.97;5022247;28;19929;-76
2022/03/24 11:10:10;;;;;;;;;;;;;;;19.72;16.36;99205.66;5024482;28;19940;-76
2022/03/24 11:12:38;;;;;;;;;;;;;;;19.77;15.96;99205.41;5030547;28;19932;-77
2022/03/24 11:15:05;;;;;;;;;;;;;;;19.77;16.08;99201.81;5029044;28;19975;-75
2022/03/24 11:17:33;;;;;;;;;;;;;;;19.90;16.17;99203.41;5035705;28;20303;-77
2022/03/24 11:20:05;;;;;;;;;;;;;;;20.05;15.70;99204.63;5021920;28;20023;-76
2022/03/24 11:22:35;;;;;;;;;;;;;;;20.20;15.63;99202.25;5026813;28;19925;-77
2022/03/24 11:25:03;;;;;;;;;;;;;;;20.46;15.46;99207.34;5026363;28;20381;-78
2022/03/24 11:27:29;;;;;;;;;;;;;;;20.77;15.40;99207.69;5005607;28;20452;-77
2022/03/24 11:29:57;;;;;;;;;;;;;;;21.16;15.35;99204.31;5026338;28;19948;-74
2022/03/24 11:32:23;;;;;;;;;;;;;;;21.63;15.14;99208.16;5028057;28;20381;-76
2022/03/24 11:34:51;;;;;;;;;;;;;;;21.98;15.04;99209.25;5011031;28;19932;-75
2022/03/24 11:37:17;;;;;;;;;;;;;;;22.35;14.68;99203.25;5027543;28;19930;-76
2022/03/24 11:40:00;;;;;;;;;;;;;;;22.66;14.17;99195.84;5024296;28;19929;-76
2022/03/24 11:42:30;;;;;;;;;;;;;;;23.05;14.21;99197.69;5017505;28;19925;-75
2022/03/24 11:45:00;;;;;;;;;;;;;;;23.32;14.27;99192.94;5026119;28;20027;-75
2022/03/24 11:47:34;;;;;;;;;;;;;;;23.49;13.95;99188.78;5022372;28;19924;-74
2022/03/24 11:50:07;;;;;;;;;;;;;;;23.54;14.08;99196.00;5027294;28;20131;-73
2022/03/24 11:52:33;;;;;;;;;;;;;;;23.49;13.88;99194.38;5025920;28;19960;-74
2022/03/24 11:54:59;;;;;;;;;;;;;;;23.47;13.21;99185.56;5021411;28;19925;-73
2022/03/24 11:57:31;;;;;;;;;;;;;;;23.46;13.44;99185.94;5024568;28;19925;-74
2022/03/24 12:00:16;;;;;;;;;;;;;;;23.47;13.12;99184.78;5023379;28;20028;-75
2022/03/24 12:02:43;;;;;;;;;;;;;;;23.55;12.92;99189.25;5023350;28;19925;-76
2022/03/24 12:05:10;;;;;;;;;;;;;;;23.55;12.99;99188.47;5022911;28;19971;-75
2022/03/24 12:07:36;;;;;;;;;;;;;;;23.85;12.61;99190.44;5029836;28;19935;-76
2022/03/24 12:10:04;;;;;;;;;;;;;;;23.80;12.54;99191.56;5021564;28;19925;-77
2022/03/24 12:12:30;;;;;;;;;;;;;;;24.18;12.64;99189.63;5021101;28;19925;-75
2022/03/24 12:14:56;;;;;;;;;;;;;;;24.53;12.35;99190.38;5024227;28;19975;-75
2022/03/24 12:17:23;;;;;;;;;;;;;;;24.84;12.14;99185.50;5023524;28;19925;-74
2022/03/24 12:19:51;;;;;;;;;;;;;;;25.04;12.24;99188.84;5002924;28;19971;-76
2022/03/24 12:22:31;;;;;;;;;;;;;;;25.32;12.07;99186.63;5022194;28;20373;-74
2022/03/24 12:25:17;;;;;;;;;;;;;;;25.53;11.96;99193.56;5030055;28;19956;-75
2022/03/24 12:28:03;;;;;;;;;;;;;;;25.98;11.79;99182.94;5026635;28;20035;-76